Time;durP1;ratioP1;P1;durP2;ratioP2;P2;SDS_P1;SDS_P2;PMS_P1;PMS_P2;Temp;Humidity;BMP_temperature;BMP_pressure;BME280_temperature;BME280_humidity;BME280_pressure;Samples;Min_cycle;Max_cycle;Signal;HPM_P1;HPM_P2
2022/03/02 00:01:30;;;;;;;26.80;17.98;;;;;;;;;;5070183;28;20226;-58
2022/03/02 00:03:56;;;;;;;26.70;17.30;;;;;;;;;;5069253;28;20211;-58
2022/03/02 00:06:21;;;;;;;26.90;17.92;;;;;;;;;;5069848;28;20202;-58
2022/03/02 00:08:46;;;;;;;25.20;18.23;;;;;;;;;;5070239;28;20230;-58
2022/03/02 00:11:12;;;;;;;25.90;18.02;;;;;;;;;;5068926;28;20634;-58
2022/03/02 00:13:37;;;;;;;25.60;18.45;;;;;;;;;;5070032;28;20271;-58
2022/03/02 00:16:02;;;;;;;25.33;18.33;;;;;;;;;;5069520;28;20788;-58
2022/03/02 00:18:28;;;;;;;26.75;17.42;;;;;;;;;;5069460;28;20206;-58
2022/03/02 00:20:53;;;;;;;27.05;19.13;;;;;;;;;;5069994;28;20210;-58
2022/03/02 00:23:18;;;;;;;25.67;18.05;;;;;;;;;;5069507;28;20220;-58
2022/03/02 00:25:44;;;;;;;29.67;19.55;;;;;;;;;;5064336;28;20511;-58
2022/03/02 00:28:09;;;;;;;27.23;18.67;;;;;;;;;;5049410;28;20225;-58
2022/03/02 00:30:34;;;;;;;28.92;18.98;;;;;;;;;;5049745;28;20238;-58
2022/03/02 00:33:00;;;;;;;32.03;19.92;;;;;;;;;;5049064;28;20544;-58
2022/03/02 00:35:25;;;;;;;32.75;19.27;;;;;;;;;;5049236;28;20682;-58
2022/03/02 00:37:51;;;;;;;27.95;19.15;;;;;;;;;;5050104;28;20248;-58
2022/03/02 00:40:16;;;;;;;27.55;18.67;;;;;;;;;;5048633;28;20588;-58
2022/03/02 00:42:41;;;;;;;26.83;18.70;;;;;;;;;;5049937;28;20480;-58
2022/03/02 00:45:06;;;;;;;29.25;19.20;;;;;;;;;;5059978;28;20698;-58
2022/03/02 00:47:32;;;;;;;26.75;18.02;;;;;;;;;;5069216;28;20669;-58
2022/03/02 00:49:57;;;;;;;27.10;18.45;;;;;;;;;;5051509;28;20209;-58
2022/03/02 00:52:23;;;;;;;31.65;19.38;;;;;;;;;;5069086;28;20218;-58
2022/03/02 00:54:48;;;;;;;27.33;18.73;;;;;;;;;;5068777;28;20682;-58
2022/03/02 00:57:13;;;;;;;27.35;19.38;;;;;;;;;;5069160;28;20767;-58
2022/03/02 00:59:38;;;;;;;28.67;18.45;;;;;;;;;;5069031;28;20468;-58
2022/03/02 01:02:04;;;;;;;28.33;19.30;;;;;;;;;;5051165;28;20688;-58
2022/03/02 01:04:29;;;;;;;28.15;18.85;;;;;;;;;;5069564;28;20217;-58
2022/03/02 01:06:54;;;;;;;28.58;19.80;;;;;;;;;;5068857;28;20317;-58
2022/03/02 01:09:19;;;;;;;27.35;18.13;;;;;;;;;;5069108;28;20206;-58
2022/03/02 01:11:45;;;;;;;31.02;19.17;;;;;;;;;;5069514;28;20622;-58
2022/03/02 01:14:10;;;;;;;29.70;19.67;;;;;;;;;;5068240;28;20214;-58
2022/03/02 01:16:35;;;;;;;27.30;18.63;;;;;;;;;;5069463;28;20214;-58
2022/03/02 01:19:00;;;;;;;27.50;19.00;;;;;;;;;;5072588;28;20389;-58
2022/03/02 01:21:26;;;;;;;29.23;19.73;;;;;;;;;;5072582;28;20206;-58
2022/03/02 01:23:53;;;;;;;27.33;18.52;;;;;;;;;;5073359;28;20743;-58
2022/03/02 01:26:20;;;;;;;28.85;18.50;;;;;;;;;;5062789;28;20215;-58
2022/03/02 01:28:45;;;;;;;28.13;19.70;;;;;;;;;;5052559;28;20203;-58
2022/03/02 01:31:11;;;;;;;30.02;19.48;;;;;;;;;;5052208;28;20276;-58
2022/03/02 01:33:36;;;;;;;25.50;18.88;;;;;;;;;;5053172;28;20615;-58
2022/03/02 01:36:01;;;;;;;28.95;19.52;;;;;;;;;;5051690;28;20564;-59
2022/03/02 01:38:27;;;;;;;27.83;19.08;;;;;;;;;;5053230;28;20207;-58
2022/03/02 01:40:52;;;;;;;28.55;19.13;;;;;;;;;;5052973;28;20483;-58
2022/03/02 01:43:17;;;;;;;28.15;19.55;;;;;;;;;;5051790;28;20242;-58
2022/03/02 01:45:43;;;;;;;32.50;19.70;;;;;;;;;;5050565;28;20289;-58
2022/03/02 01:48:08;;;;;;;27.05;18.60;;;;;;;;;;5072410;28;20289;-58
2022/03/02 01:50:33;;;;;;;28.38;18.65;;;;;;;;;;5072197;28;20237;-58
2022/03/02 01:52:59;;;;;;;28.73;19.67;;;;;;;;;;5054671;28;20226;-58
2022/03/02 01:55:24;;;;;;;28.58;19.17;;;;;;;;;;5072032;28;20256;-58
2022/03/02 01:57:49;;;;;;;27.55;18.90;;;;;;;;;;5072021;28;20580;-58
2022/03/02 02:00:18;;;;;;;28.85;19.38;;;;;;;;;;5072042;28;20218;-58
2022/03/02 02:02:43;;;;;;;26.15;18.42;;;;;;;;;;5072345;28;20688;-58
2022/03/02 02:05:09;;;;;;;29.80;19.60;;;;;;;;;;5071293;28;20419;-58
2022/03/02 02:07:34;;;;;;;32.92;20.33;;;;;;;;;;5072406;28;20290;-58
2022/03/02 02:10:00;;;;;;;27.15;19.20;;;;;;;;;;5071525;28;20352;-58
2022/03/02 02:12:25;;;;;;;29.63;20.02;;;;;;;;;;5071678;28;20603;-58
2022/03/02 02:14:50;;;;;;;26.88;19.35;;;;;;;;;;5072441;28;20218;-58
2022/03/02 02:17:15;;;;;;;29.85;20.50;;;;;;;;;;5070948;28;20238;-58
2022/03/02 02:19:41;;;;;;;28.75;20.27;;;;;;;;;;5072357;28;20218;-58
2022/03/02 02:22:06;;;;;;;28.00;19.60;;;;;;;;;;5053741;28;20210;-58
2022/03/02 02:24:31;;;;;;;29.63;19.05;;;;;;;;;;5071502;28;20321;-58
2022/03/02 02:26:56;;;;;;;28.48;19.77;;;;;;;;;;5071956;28;20673;-58
2022/03/02 02:29:22;;;;;;;29.60;19.67;;;;;;;;;;5052582;28;20210;-58
2022/03/02 02:31:47;;;;;;;30.95;20.10;;;;;;;;;;5053194;28;20748;-57
2022/03/02 02:34:12;;;;;;;27.02;18.38;;;;;;;;;;5071630;28;20358;-58
2022/03/02 02:36:38;;;;;;;29.90;19.98;;;;;;;;;;5071884;28;20206;-57
2022/03/02 02:39:03;;;;;;;30.83;20.38;;;;;;;;;;5052813;28;20245;-58
2022/03/02 02:41:28;;;;;;;28.92;20.02;;;;;;;;;;5071994;28;20696;-58
2022/03/02 02:43:53;;;;;;;28.20;19.17;;;;;;;;;;5071876;28;20206;-57
2022/03/02 02:46:19;;;;;;;29.77;20.10;;;;;;;;;;5070568;28;20359;-58
2022/03/02 02:48:44;;;;;;;31.33;19.88;;;;;;;;;;5071506;28;20297;-57
2022/03/02 02:51:09;;;;;;;29.27;19.77;;;;;;;;;;5071031;28;20210;-57
2022/03/02 02:53:34;;;;;;;29.63;19.92;;;;;;;;;;5071110;28;20219;-57
2022/03/02 02:56:00;;;;;;;29.25;20.23;;;;;;;;;;5071319;28;20226;-58
2022/03/02 02:58:25;;;;;;;29.40;19.52;;;;;;;;;;5071019;28;20206;-58
2022/03/02 03:00:50;;;;;;;28.77;19.08;;;;;;;;;;5071034;28;20202;-57
2022/03/02 03:03:16;;;;;;;29.50;19.50;;;;;;;;;;5070599;28;20207;-57
2022/03/02 03:05:41;;;;;;;30.52;19.90;;;;;;;;;;5071730;28;20256;-57
2022/03/02 03:08:07;;;;;;;32.50;19.23;;;;;;;;;;5052193;28;20212;-58
2022/03/02 03:10:33;;;;;;;31.77;19.58;;;;;;;;;;5071406;28;20206;-57
2022/03/02 03:12:58;;;;;;;30.40;20.07;;;;;;;;;;5053081;28;20229;-57
2022/03/02 03:15:23;;;;;;;33.10;20.70;;;;;;;;;;5070074;28;20211;-57
2022/03/02 03:17:49;;;;;;;28.70;19.15;;;;;;;;;;5071080;28;20287;-57
2022/03/02 03:20:15;;;;;;;29.58;19.95;;;;;;;;;;5070397;28;20214;-57
2022/03/02 03:22:40;;;;;;;26.52;18.38;;;;;;;;;;5071035;28;20654;-57
2022/03/02 03:25:07;;;;;;;28.60;19.67;;;;;;;;;;5070736;28;20632;-58
2022/03/02 03:27:32;;;;;;;31.02;19.02;;;;;;;;;;5070182;28;20347;-57
2022/03/02 03:29:57;;;;;;;29.08;18.48;;;;;;;;;;5070892;28;20289;-57
2022/03/02 03:32:23;;;;;;;28.27;18.75;;;;;;;;;;5070223;28;20210;-58
2022/03/02 03:34:48;;;;;;;27.90;18.83;;;;;;;;;;5070001;28;20206;-57
2022/03/02 03:37:13;;;;;;;31.25;19.42;;;;;;;;;;5070386;28;20211;-57
2022/03/02 03:39:39;;;;;;;30.52;20.15;;;;;;;;;;5070664;28;20203;-57
2022/03/02 03:42:04;;;;;;;27.00;19.48;;;;;;;;;;5051508;28;20203;-57
2022/03/02 03:44:30;;;;;;;27.83;19.58;;;;;;;;;;5070457;28;20214;-58
2022/03/02 03:46:55;;;;;;;27.35;19.08;;;;;;;;;;5070494;28;20214;-57
2022/03/02 03:49:20;;;;;;;28.43;19.20;;;;;;;;;;5069007;28;20293;-57
2022/03/02 03:51:46;;;;;;;29.70;19.90;;;;;;;;;;5070480;28;20226;-57
2022/03/02 03:54:11;;;;;;;26.75;18.77;;;;;;;;;;5069846;28;20317;-57
2022/03/02 03:56:37;;;;;;;30.33;19.40;;;;;;;;;;5069673;28;20218;-57
2022/03/02 03:59:02;;;;;;;30.27;19.92;;;;;;;;;;5070348;28;20210;-58
2022/03/02 04:01:27;;;;;;;27.45;18.45;;;;;;;;;;5070282;28;20213;-57
2022/03/02 04:03:53;;;;;;;28.40;19.10;;;;;;;;;;5069511;28;20237;-57
2022/03/02 04:06:18;;;;;;;31.27;19.83;;;;;;;;;;5069961;28;20683;-58
2022/03/02 04:08:44;;;;;;;30.15;20.40;;;;;;;;;;5052655;28;20301;-57
2022/03/02 04:11:09;;;;;;;30.50;20.13;;;;;;;;;;5068995;28;20206;-58
2022/03/02 04:13:34;;;;;;;34.15;21.50;;;;;;;;;;5070133;28;20656;-58
2022/03/02 04:16:00;;;;;;;39.45;24.20;;;;;;;;;;5070311;28;20570;-57
2022/03/02 04:18:25;;;;;;;32.87;21.37;;;;;;;;;;5069301;28;20790;-58
2022/03/02 04:20:52;;;;;;;30.20;20.40;;;;;;;;;;5069847;28;20221;-57
2022/03/02 04:23:17;;;;;;;30.98;20.13;;;;;;;;;;5069645;28;20253;-57
2022/03/02 04:25:42;;;;;;;32.60;21.38;;;;;;;;;;5069258;28;20246;-57
2022/03/02 04:28:08;;;;;;;32.75;21.50;;;;;;;;;;5051576;28;20263;-58
2022/03/02 04:30:33;;;;;;;31.17;20.27;;;;;;;;;;5069781;28;20293;-58
2022/03/02 04:32:58;;;;;;;29.67;19.60;;;;;;;;;;5069506;28;20233;-58
2022/03/02 04:35:24;;;;;;;29.03;19.40;;;;;;;;;;5069362;28;20225;-57
2022/03/02 04:37:49;;;;;;;30.48;19.98;;;;;;;;;;5069403;28;20210;-57
2022/03/02 04:40:14;;;;;;;29.45;19.67;;;;;;;;;;5069421;28;20218;-58
2022/03/02 04:42:40;;;;;;;30.88;19.33;;;;;;;;;;5070061;28;20857;-57
2022/03/02 04:45:05;;;;;;;29.92;20.15;;;;;;;;;;5068552;28;20237;-58
2022/03/02 04:47:30;;;;;;;28.87;19.27;;;;;;;;;;5052027;28;20259;-57
2022/03/02 04:49:56;;;;;;;29.63;19.98;;;;;;;;;;5069754;28;20244;-57
2022/03/02 04:52:21;;;;;;;28.80;19.73;;;;;;;;;;5069272;28;20499;-57
2022/03/02 04:57:30;;;;;;;31.15;19.80;;;;;;;;;;5073376;28;20217;-57
2022/03/02 04:59:55;;;;;;;30.27;20.00;;;;;;;;;;5073012;28;20567;-57
2022/03/02 05:02:21;;;;;;;28.83;19.25;;;;;;;;;;5073166;28;20230;-57
2022/03/02 05:04:46;;;;;;;30.20;20.23;;;;;;;;;;5073674;28;20570;-57
2022/03/02 05:07:11;;;;;;;30.33;19.93;;;;;;;;;;5072160;28;20202;-58
2022/03/02 05:09:36;;;;;;;29.42;20.25;;;;;;;;;;5073670;28;20214;-57
2022/03/02 05:12:03;;;;;;;29.10;20.37;;;;;;;;;;5073188;28;20226;-58
2022/03/02 05:14:29;;;;;;;29.17;19.25;;;;;;;;;;5072594;28;20289;-57
2022/03/02 05:16:54;;;;;;;29.33;20.13;;;;;;;;;;5073565;28;20292;-57
2022/03/02 05:19:19;;;;;;;29.67;19.52;;;;;;;;;;5073054;28;20207;-57
2022/03/02 05:21:44;;;;;;;30.35;19.90;;;;;;;;;;5072554;28;20230;-57
2022/03/02 05:24:10;;;;;;;31.00;19.67;;;;;;;;;;5073040;28;20207;-57
2022/03/02 05:26:35;;;;;;;30.87;19.90;;;;;;;;;;5073171;28;20218;-57
2022/03/02 05:29:00;;;;;;;26.77;19.08;;;;;;;;;;5072207;28;20267;-58
2022/03/02 05:31:25;;;;;;;29.97;20.87;;;;;;;;;;5072996;28;20207;-57
2022/03/02 05:33:51;;;;;;;29.80;19.73;;;;;;;;;;5073298;28;20225;-57
2022/03/02 05:36:17;;;;;;;29.10;19.87;;;;;;;;;;5072040;28;20237;-57
2022/03/02 05:38:42;;;;;;;33.23;20.67;;;;;;;;;;5073135;28;20624;-57
2022/03/02 05:41:08;;;;;;;32.87;20.57;;;;;;;;;;5071812;28;20298;-58
2022/03/02 05:43:33;;;;;;;30.70;20.17;;;;;;;;;;5072909;28;20214;-57
2022/03/02 05:45:58;;;;;;;33.38;22.35;;;;;;;;;;5072819;28;20213;-57
2022/03/02 05:48:24;;;;;;;30.15;21.20;;;;;;;;;;5071841;28;20218;-57
2022/03/02 05:50:49;;;;;;;33.77;21.13;;;;;;;;;;5072764;28;20237;-57
2022/03/02 05:53:14;;;;;;;30.55;21.00;;;;;;;;;;5072105;28;20223;-57
2022/03/02 05:55:40;;;;;;;32.15;20.15;;;;;;;;;;5071808;28;20535;-57
2022/03/02 05:58:05;;;;;;;32.57;21.47;;;;;;;;;;5072230;28;20221;-57
2022/03/02 06:00:30;;;;;;;33.17;22.53;;;;;;;;;;5072610;28;20218;-57
2022/03/02 06:02:55;;;;;;;32.83;21.43;;;;;;;;;;5071319;28;20214;-57
2022/03/02 06:05:21;;;;;;;32.23;21.87;;;;;;;;;;5072186;28;20293;-57
2022/03/02 06:07:46;;;;;;;31.97;21.67;;;;;;;;;;5072511;28;20229;-57
2022/03/02 06:10:13;;;;;;;33.10;21.53;;;;;;;;;;5071400;28;20202;-57
2022/03/02 06:12:39;;;;;;;35.60;21.67;;;;;;;;;;5054336;28;20266;-57
2022/03/02 06:15:04;;;;;;;34.03;21.00;;;;;;;;;;5071537;28;20199;-61
2022/03/02 06:17:29;;;;;;;32.65;20.67;;;;;;;;;;5071373;28;20338;-60
2022/03/02 06:19:55;;;;;;;31.97;20.90;;;;;;;;;;5054206;28;20206;-59
2022/03/02 06:22:21;;;;;;;34.40;23.70;;;;;;;;;;5070765;28;20422;-58
2022/03/02 06:24:46;;;;;;;32.27;21.43;;;;;;;;;;5053824;28;20207;-57
2022/03/02 06:27:11;;;;;;;32.88;22.17;;;;;;;;;;5071428;28;20225;-58
2022/03/02 06:29:38;;;;;;;32.77;21.90;;;;;;;;;;5072173;28;20206;-57
2022/03/02 06:32:04;;;;;;;31.10;20.50;;;;;;;;;;5070675;28;20697;-57
2022/03/02 06:34:29;;;;;;;30.37;20.50;;;;;;;;;;5072102;28;20198;-57
2022/03/02 06:36:54;;;;;;;32.87;23.33;;;;;;;;;;5070837;28;20513;-57
2022/03/02 06:39:20;;;;;;;31.33;21.23;;;;;;;;;;5070360;28;20225;-57
2022/03/02 06:41:48;;;;;;;31.53;21.03;;;;;;;;;;5071894;28;20333;-58
2022/03/02 06:44:18;;;;;;;31.03;20.70;;;;;;;;;;5070402;28;20268;-58
2022/03/02 06:46:48;;;;;;;36.95;21.45;;;;;;;;;;5054022;28;20238;-58
2022/03/02 06:49:14;;;;;;;30.42;20.70;;;;;;;;;;5053413;28;20221;-58
2022/03/02 06:51:39;;;;;;;31.40;21.40;;;;;;;;;;5070787;28;20218;-58
2022/03/02 06:54:04;;;;;;;32.40;20.90;;;;;;;;;;5067729;28;20245;-58
2022/03/02 06:56:31;;;;;;;34.57;22.23;;;;;;;;;;5052559;28;20276;-58
2022/03/02 06:58:56;;;;;;;47.13;28.47;;;;;;;;;;5052676;28;20207;-58
2022/03/02 07:01:25;;;;;;;42.33;26.20;;;;;;;;;;5070863;28;20221;-59
2022/03/02 07:03:50;;;;;;;35.30;22.70;;;;;;;;;;5071260;28;20234;-59
2022/03/02 07:06:16;;;;;;;35.33;21.77;;;;;;;;;;5052313;28;20250;-60
2022/03/02 07:08:42;;;;;;;35.47;22.17;;;;;;;;;;5071552;28;20207;-59
2022/03/02 07:11:08;;;;;;;34.20;22.25;;;;;;;;;;5086355;28;20626;-60
2022/03/02 07:13:33;;;;;;;33.73;22.40;;;;;;;;;;5070882;28;20641;-59
2022/03/02 07:15:58;;;;;;;32.53;22.30;;;;;;;;;;5070481;28;20210;-59
2022/03/02 07:18:24;;;;;;;35.35;21.92;;;;;;;;;;5052842;28;20271;-59
2022/03/02 07:20:49;;;;;;;35.13;22.77;;;;;;;;;;5052832;28;20589;-59
2022/03/02 07:23:15;;;;;;;32.33;21.23;;;;;;;;;;5052265;28;20585;-60
2022/03/02 07:25:41;;;;;;;34.03;22.63;;;;;;;;;;5070760;28;20290;-60
2022/03/02 07:28:06;;;;;;;32.97;21.40;;;;;;;;;;5069907;28;20235;-59
2022/03/02 07:30:32;;;;;;;31.17;20.87;;;;;;;;;;5053371;28;20253;-60
2022/03/02 07:33:01;;;;;;;33.47;21.37;;;;;;;;;;5071015;28;20770;-59
2022/03/02 07:35:26;;;;;;;31.92;21.02;;;;;;;;;;5070003;28;20348;-60
2022/03/02 07:37:53;;;;;;;34.67;20.90;;;;;;;;;;5070762;28;20311;-60
2022/03/02 07:40:18;;;;;;;32.78;19.60;;;;;;;;;;5052279;28;20240;-60
2022/03/02 07:42:44;;;;;;;29.53;19.40;;;;;;;;;;5070031;28;20202;-59
2022/03/02 07:45:10;;;;;;;32.55;20.17;;;;;;;;;;5070045;28;20214;-59
2022/03/02 07:47:35;;;;;;;30.48;19.35;;;;;;;;;;5052110;28;20296;-59
2022/03/02 07:50:00;;;;;;;31.58;21.08;;;;;;;;;;5070345;28;20237;-60
2022/03/02 07:52:26;;;;;;;31.00;19.58;;;;;;;;;;5070416;28;20234;-59
2022/03/02 07:54:53;;;;;;;32.03;19.80;;;;;;;;;;5068982;28;20794;-60
2022/03/02 07:57:18;;;;;;;32.83;20.25;;;;;;;;;;5070032;28;20560;-60
2022/03/02 07:59:44;;;;;;;29.23;19.92;;;;;;;;;;5070407;28;20260;-59
2022/03/02 08:02:10;;;;;;;31.30;19.90;;;;;;;;;;5069286;28;20229;-60
2022/03/02 08:04:35;;;;;;;27.05;18.73;;;;;;;;;;5070542;28;20217;-60
2022/03/02 08:07:01;;;;;;;29.60;19.98;;;;;;;;;;5070025;28;20221;-59
2022/03/02 08:09:26;;;;;;;30.58;19.20;;;;;;;;;;5068962;28;20202;-60
2022/03/02 08:11:51;;;;;;;29.05;19.23;;;;;;;;;;5070364;28;20230;-61
2022/03/02 08:14:21;;;;;;;26.45;18.67;;;;;;;;;;5051957;28;20210;-60
2022/03/02 08:16:46;;;;;;;29.83;20.45;;;;;;;;;;5069684;28;20202;-61
2022/03/02 08:19:11;;;;;;;27.83;19.35;;;;;;;;;;5069716;28;20217;-60
2022/03/02 08:21:37;;;;;;;27.65;18.95;;;;;;;;;;5070180;28;20210;-60
2022/03/02 08:24:03;;;;;;;26.77;18.77;;;;;;;;;;5068855;28;20214;-61
2022/03/02 08:26:30;;;;;;;27.27;18.67;;;;;;;;;;5069845;28;20596;-61
2022/03/02 08:28:55;;;;;;;28.33;18.25;;;;;;;;;;5052319;28;20205;-61
2022/03/02 08:31:22;;;;;;;27.48;19.20;;;;;;;;;;5069020;28;20207;-60
2022/03/02 08:33:47;;;;;;;28.67;19.48;;;;;;;;;;5070275;28;20250;-60
2022/03/02 08:36:15;;;;;;;26.77;18.10;;;;;;;;;;5069686;28;20260;-58
2022/03/02 08:38:42;;;;;;;28.55;18.25;;;;;;;;;;5051395;28;20356;-60
2022/03/02 08:41:08;;;;;;;28.17;18.50;;;;;;;;;;5069626;28;20211;-61
2022/03/02 08:43:35;;;;;;;27.05;17.88;;;;;;;;;;5070244;28;20217;-61
2022/03/02 08:46:01;;;;;;;26.08;18.63;;;;;;;;;;5068545;28;20202;-61
2022/03/02 08:48:26;;;;;;;27.27;18.60;;;;;;;;;;5070029;28;20293;-61
2022/03/02 08:50:51;;;;;;;26.65;18.17;;;;;;;;;;5069416;28;20587;-61
2022/03/02 08:53:17;;;;;;;25.10;17.33;;;;;;;;;;5051081;28;20698;-61
2022/03/02 08:55:43;;;;;;;30.75;18.70;;;;;;;;;;5069333;28;20287;-61
2022/03/02 08:58:08;;;;;;;25.38;18.38;;;;;;;;;;5068586;28;20244;-61
2022/03/02 09:00:33;;;;;;;26.08;18.38;;;;;;;;;;5069926;28;20290;-61
2022/03/02 09:02:58;;;;;;;28.02;19.02;;;;;;;;;;5069851;28;20259;-61
2022/03/02 09:05:26;;;;;;;29.65;20.13;;;;;;;;;;5068774;28;20345;-61
2022/03/02 09:07:51;;;;;;;26.05;19.17;;;;;;;;;;5069746;28;20294;-61
2022/03/02 09:10:17;;;;;;;24.95;17.40;;;;;;;;;;5069253;28;20324;-61
2022/03/02 09:12:42;;;;;;;26.35;16.95;;;;;;;;;;5068656;28;20218;-61
2022/03/02 09:15:08;;;;;;;32.40;20.63;;;;;;;;;;5069121;28;20698;-61
2022/03/02 09:17:33;;;;;;;28.45;20.63;;;;;;;;;;5070138;28;20256;-61
2022/03/02 09:19:58;;;;;;;27.70;21.45;;;;;;;;;;5068894;28;20203;-61
2022/03/02 09:22:24;;;;;;;28.65;20.02;;;;;;;;;;5069170;28;20736;-61
2022/03/02 09:24:49;;;;;;;26.48;17.58;;;;;;;;;;5069619;28;20207;-61
2022/03/02 09:27:15;;;;;;;27.23;17.52;;;;;;;;;;5068222;28;20248;-61
2022/03/02 09:29:42;;;;;;;22.88;16.85;;;;;;;;;;5069588;28;20206;-61
2022/03/02 09:32:07;;;;;;;27.52;17.17;;;;;;;;;;5069025;28;20229;-61
2022/03/02 09:34:32;;;;;;;28.20;18.10;;;;;;;;;;5068884;28;20211;-61
2022/03/02 09:36:59;;;;;;;29.15;17.65;;;;;;;;;;5069678;28;20317;-61
2022/03/02 09:39:24;;;;;;;26.00;16.95;;;;;;;;;;5071014;28;20210;-61
2022/03/02 09:41:54;;;;;;;27.27;18.40;;;;;;;;;;5072258;28;20704;-61
2022/03/02 09:44:20;;;;;;;24.45;17.35;;;;;;;;;;5038148;28;20267;-61
2022/03/02 09:46:55;;;;;;;25.92;18.02;;;;;;;;;;5073030;28;20206;-60
2022/03/02 09:49:21;;;;;;;26.77;17.08;;;;;;;;;;5071620;28;20233;-61
2022/03/02 09:51:50;;;;;;;28.98;19.77;;;;;;;;;;5072834;28;20901;-61
2022/03/02 09:54:15;;;;;;;25.63;18.13;;;;;;;;;;5071590;28;20681;-61
2022/03/02 09:56:40;;;;;;;25.40;18.17;;;;;;;;;;5054862;28;20551;-60
2022/03/02 09:59:06;;;;;;;21.67;17.05;;;;;;;;;;5054455;28;20226;-61
2022/03/02 10:01:32;;;;;;;24.42;17.70;;;;;;;;;;5072211;28;20237;-61
2022/03/02 10:03:58;;;;;;;24.80;17.13;;;;;;;;;;5072485;28;20202;-60
2022/03/02 10:06:23;;;;;;;26.33;16.88;;;;;;;;;;5054338;28;20210;-60
2022/03/02 10:08:49;;;;;;;24.02;18.05;;;;;;;;;;5071901;28;20704;-60
2022/03/02 10:11:15;;;;;;;23.08;16.67;;;;;;;;;;5072149;28;20272;-65
2022/03/02 10:13:41;;;;;;;25.35;17.27;;;;;;;;;;5072565;28;20219;-61
2022/03/02 10:16:06;;;;;;;23.35;16.77;;;;;;;;;;5071027;28;20203;-70
2022/03/02 10:18:33;;;;;;;24.80;16.67;;;;;;;;;;5054600;28;20206;-71
2022/03/02 10:21:00;;;;;;;23.50;16.15;;;;;;;;;;5072244;28;20237;-71
2022/03/02 10:23:32;;;;;;;22.83;16.48;;;;;;;;;;5053280;28;20291;-73
2022/03/02 10:26:00;;;;;;;23.50;17.08;;;;;;;;;;5053940;28;20201;-73
2022/03/02 10:28:27;;;;;;;23.17;16.38;;;;;;;;;;5071613;28;20705;-72
2022/03/02 10:31:00;;;;;;;24.17;16.30;;;;;;;;;;5071891;28;20203;-70
2022/03/02 10:33:25;;;;;;;23.38;16.10;;;;;;;;;;5054330;28;20584;-76
2022/03/02 10:35:51;;;;;;;24.55;15.60;;;;;;;;;;5054724;28;20453;-71
2022/03/02 10:38:17;;;;;;;22.52;14.85;;;;;;;;;;5071200;28;20224;-62
2022/03/02 10:40:42;;;;;;;23.58;15.88;;;;;;;;;;5054157;28;20211;-60
2022/03/02 10:43:09;;;;;;;21.65;15.55;;;;;;;;;;5071326;28;20234;-60
2022/03/02 10:45:42;;;;;;;22.50;16.23;;;;;;;;;;5070873;28;20260;-60
2022/03/02 10:48:16;;;;;;;23.02;15.18;;;;;;;;;;5071337;28;20275;-67
2022/03/02 10:50:41;;;;;;;23.13;15.43;;;;;;;;;;5070134;28;20736;-68
2022/03/02 10:53:11;;;;;;;21.65;14.93;;;;;;;;;;5071084;28;20222;-68
2022/03/02 10:55:37;;;;;;;23.38;15.13;;;;;;;;;;5071475;28;20223;-67
2022/03/02 10:58:03;;;;;;;21.52;14.23;;;;;;;;;;5070331;28;21188;-66
2022/03/02 11:00:28;;;;;;;20.90;14.43;;;;;;;;;;5071443;28;20607;-68
2022/03/02 11:02:57;;;;;;;19.95;13.93;;;;;;;;;;5071519;28;20222;-67
2022/03/02 11:05:23;;;;;;;19.40;13.60;;;;;;;;;;5070295;28;20202;-67
2022/03/02 11:07:48;;;;;;;19.80;14.43;;;;;;;;;;5071420;28;20207;-67
2022/03/02 11:10:14;;;;;;;22.67;13.88;;;;;;;;;;5052986;28;20214;-69
2022/03/02 11:12:41;;;;;;;20.10;14.18;;;;;;;;;;5070609;28;20231;-65
2022/03/02 11:15:07;;;;;;;18.90;13.15;;;;;;;;;;5067646;28;20264;-65
2022/03/02 11:17:33;;;;;;;19.15;13.90;;;;;;;;;;5053740;28;20225;-65
2022/03/02 11:19:58;;;;;;;17.80;12.27;;;;;;;;;;5052586;28;20583;-65
2022/03/02 11:22:24;;;;;;;18.13;12.60;;;;;;;;;;5052650;28;20210;-65
2022/03/02 11:24:57;;;;;;;19.30;12.70;;;;;;;;;;5071213;28;20728;-64
2022/03/02 11:27:28;;;;;;;17.77;11.82;;;;;;;;;;5069494;28;20214;-66
2022/03/02 11:30:01;;;;;;;18.90;12.82;;;;;;;;;;5070122;28;20316;-67
2022/03/02 11:32:26;;;;;;;19.35;13.02;;;;;;;;;;5070345;28;20776;-66
2022/03/02 11:34:51;;;;;;;20.58;13.25;;;;;;;;;;5070182;28;20297;-66
2022/03/02 11:37:17;;;;;;;17.27;12.13;;;;;;;;;;5052334;28;20206;-66
2022/03/02 11:39:43;;;;;;;17.38;11.82;;;;;;;;;;5052228;28;20202;-66
2022/03/02 11:42:09;;;;;;;16.95;11.63;;;;;;;;;;5052393;28;20545;-66
2022/03/02 11:44:41;;;;;;;16.17;11.57;;;;;;;;;;5070069;28;20692;-66
2022/03/02 11:47:07;;;;;;;18.92;12.52;;;;;;;;;;5069224;28;20230;-66
2022/03/02 11:49:39;;;;;;;16.67;12.25;;;;;;;;;;5070676;28;20237;-66
2022/03/02 11:52:05;;;;;;;15.98;11.88;;;;;;;;;;5069865;28;20222;-66
2022/03/02 11:54:38;;;;;;;18.27;12.63;;;;;;;;;;5069703;28;20222;-66
2022/03/02 11:57:03;;;;;;;17.40;12.23;;;;;;;;;;5069998;28;20209;-66
2022/03/02 11:59:29;;;;;;;17.30;11.23;;;;;;;;;;5070109;28;20206;-66
2022/03/02 12:01:54;;;;;;;17.00;11.63;;;;;;;;;;5069137;28;20271;-66
2022/03/02 12:04:19;;;;;;;19.80;12.65;;;;;;;;;;5069941;28;20206;-66
2022/03/02 12:06:47;;;;;;;17.45;12.00;;;;;;;;;;5070463;28;20511;-66
2022/03/02 12:09:28;;;;;;;17.63;11.55;;;;;;;;;;5069183;28;20238;-66
2022/03/02 12:12:07;;;;;;;14.65;11.27;;;;;;;;;;5070061;28;20697;-66
2022/03/02 12:14:41;;;;;;;15.98;11.75;;;;;;;;;;5051515;28;20206;-66
2022/03/02 12:17:13;;;;;;;15.07;11.30;;;;;;;;;;5068869;28;20579;-65
2022/03/02 12:19:39;;;;;;;15.40;11.27;;;;;;;;;;5070271;28;20211;-66
2022/03/02 12:22:05;;;;;;;16.40;11.15;;;;;;;;;;5068701;28;20540;-66
2022/03/02 12:24:32;;;;;;;17.48;11.13;;;;;;;;;;5070125;28;20568;-66
2022/03/02 12:27:04;;;;;;;16.15;11.20;;;;;;;;;;5054991;28;20231;-66
2022/03/02 12:29:30;;;;;;;16.80;10.60;;;;;;;;;;5048771;28;20238;-65
2022/03/02 12:32:03;;;;;;;17.70;11.50;;;;;;;;;;5049619;28;20234;-65
2022/03/02 12:34:29;;;;;;;17.02;10.38;;;;;;;;;;5049645;28;20693;-65
2022/03/02 12:36:54;;;;;;;17.30;11.30;;;;;;;;;;5031437;28;20211;-65
2022/03/02 12:39:20;;;;;;;14.98;11.15;;;;;;;;;;5031643;28;20264;-65
2022/03/02 12:41:45;;;;;;;18.38;11.30;;;;;;;;;;5031850;28;20282;-66
2022/03/02 12:44:10;;;;;;;16.38;11.68;;;;;;;;;;5033660;28;20301;-65
2022/03/02 12:46:36;;;;;;;17.77;11.75;;;;;;;;;;5051845;28;20206;-65
2022/03/02 12:49:01;;;;;;;16.95;11.57;;;;;;;;;;5034895;28;20202;-65
2022/03/02 12:51:27;;;;;;;16.83;11.38;;;;;;;;;;5051331;28;20210;-65
2022/03/02 12:53:52;;;;;;;15.90;11.88;;;;;;;;;;5069395;28;20253;-65
2022/03/02 12:56:18;;;;;;;15.20;11.50;;;;;;;;;;5051361;28;20241;-65
2022/03/02 12:58:44;;;;;;;16.48;11.55;;;;;;;;;;5068861;28;20206;-65
2022/03/02 13:01:09;;;;;;;14.20;11.00;;;;;;;;;;5068667;28;20681;-65
2022/03/02 13:03:34;;;;;;;13.07;9.65;;;;;;;;;;5069649;28;20218;-65
2022/03/02 13:06:00;;;;;;;16.98;10.73;;;;;;;;;;5051096;28;20289;-65
2022/03/02 13:08:30;;;;;;;15.02;10.27;;;;;;;;;;5069428;28;20206;-65
2022/03/02 13:10:55;;;;;;;13.15;8.85;;;;;;;;;;5069622;28;20293;-65
2022/03/02 13:13:31;;;;;;;12.30;8.57;;;;;;;;;;5068580;28;20309;-65
2022/03/02 13:15:56;;;;;;;12.15;8.10;;;;;;;;;;5072925;28;20289;-65
2022/03/02 13:18:22;;;;;;;11.73;8.38;;;;;;;;;;5054311;28;20328;-65
2022/03/02 13:20:49;;;;;;;12.30;7.72;;;;;;;;;;5073274;28;20217;-65
2022/03/02 13:23:19;;;;;;;10.48;7.15;;;;;;;;;;5072653;28;20225;-65
2022/03/02 13:25:54;;;;;;;11.50;7.90;;;;;;;;;;5072243;28;20198;-65
2022/03/02 13:28:19;;;;;;;11.77;7.55;;;;;;;;;;5072550;28;20579;-65
2022/03/02 13:30:48;;;;;;;11.95;8.10;;;;;;;;;;5073420;28;20209;-65
2022/03/02 13:33:13;;;;;;;11.05;7.47;;;;;;;;;;5071726;28;20234;-65
2022/03/02 13:35:51;;;;;;;9.98;7.00;;;;;;;;;;5073192;28;20233;-65
2022/03/02 13:38:16;;;;;;;12.30;6.97;;;;;;;;;;5072555;28;20232;-65
2022/03/02 13:40:43;;;;;;;11.10;7.53;;;;;;;;;;5072445;28;20697;-65
2022/03/02 13:43:08;;;;;;;11.05;7.75;;;;;;;;;;5072424;28;20211;-65
2022/03/02 13:45:34;;;;;;;12.25;7.78;;;;;;;;;;5057938;28;20293;-65
2022/03/02 13:48:11;;;;;;;11.63;7.45;;;;;;;;;;5052108;28;20207;-65
2022/03/02 13:50:55;;;;;;;11.65;7.47;;;;;;;;;;5052316;28;20214;-65
2022/03/02 13:53:40;;;;;;;9.98;6.70;;;;;;;;;;5051517;28;20230;-65
2022/03/02 13:56:07;;;;;;;9.85;6.43;;;;;;;;;;5051951;28;20238;-65
2022/03/02 13:58:32;;;;;;;10.90;7.03;;;;;;;;;;5052707;28;20273;-65
2022/03/02 14:01:34;;;;;;;9.85;6.30;;;;;;;;;;5052026;28;20682;-65
2022/03/02 14:04:00;;;;;;;9.73;6.00;;;;;;;;;;5049231;28;20552;-65
2022/03/02 14:06:25;;;;;;;9.32;6.20;;;;;;;;;;5052319;28;20692;-65
2022/03/02 14:08:51;;;;;;;9.48;6.43;;;;;;;;;;5051881;28;20669;-65
2022/03/02 14:11:30;;;;;;;9.05;6.20;;;;;;;;;;5052069;28;20215;-65
2022/03/02 14:13:55;;;;;;;9.77;6.22;;;;;;;;;;5052241;28;20713;-65
2022/03/02 14:16:20;;;;;;;9.43;6.38;;;;;;;;;;5051186;28;20231;-65